aviador You're here:

OIMN Decoded Metar

BOJNORD in IRAN
Report Time2017-11-22 21:00:00
UTC Time2017-11-22 21:55:22
Flight Rules vfr VFR
Wind330° at 04 kt
W.Decomp.*RWY 25: 1.0 kt HW 3.9 kt RCW
W.Rank330° ranks 8
Current wind is below 330° avg. (6.5)
Visibility9999 m
Phenomena:N/A
Clouds:N/A
Expected CloudBase > 2,800 ft AGL from Temp-Dew spread
CeilingNone
Temp07°C (ISA -1)
Dew Point00°C (61% RH)
AAT3.6°C
QNH1012 hPa
Density Alt3,530 ft
Elevation3,524 ft
Report Wrong Elevation
Raw Report
METAR OIMN 222100Z 33004KT CAVOK 07/M00 Q1012=

Extra information for OIMN:More info

Metar Taf Metar & Taf Last 4 Metars F.Rules Stats Wind Profile Meteogram Temp Stats Airport Information Weather charts Add Link Nearby VenuesMetar ALERT Operation Metar Decoded Social comments